Time;durP1;ratioP1;P1;durP2;ratioP2;P2;SDS_P1;SDS_P2;PMS_P1;PMS_P2;Temp;Humidity;BMP_temperature;BMP_pressure;BME280_temperature;BME280_humidity;BME280_pressure;Samples;Min_cycle;Max_cycle;Signal;HPM_P1;HPM_P2
2024/01/28 00:02:17;;;;;;;17.35;9.00;;;;;;;-0.23;100.00;103012.84;5093466;28;20024;-71
2024/01/28 00:04:42;;;;;;;17.20;10.48;;;;;;;-0.28;100.00;103001.78;5111610;28;20040;-72
2024/01/28 00:07:08;;;;;;;20.50;10.00;;;;;;;-0.25;100.00;103012.09;5111713;28;20097;-72
2024/01/28 00:09:33;;;;;;;19.52;9.75;;;;;;;-0.17;100.00;103009.84;5093324;28;20468;-71
2024/01/28 00:11:59;;;;;;;17.45;9.93;;;;;;;-0.18;100.00;102997.66;5111556;28;20046;-72
2024/01/28 00:14:24;;;;;;;21.63;10.02;;;;;;;-0.23;100.00;102987.41;5093157;28;20028;-72
2024/01/28 00:16:49;;;;;;;24.02;10.18;;;;;;;-0.22;100.00;102988.25;5111569;28;20080;-72
2024/01/28 00:19:15;;;;;;;16.50;9.38;;;;;;;-0.27;100.00;102983.28;5093167;28;20031;-71
2024/01/28 00:21:40;;;;;;;17.70;9.55;;;;;;;-0.24;100.00;102987.50;5093231;28;20042;-72
2024/01/28 00:24:06;;;;;;;16.40;10.75;;;;;;;-0.26;100.00;102984.13;5092985;28;20089;-72
2024/01/28 00:26:39;;;;;;;16.50;9.40;;;;;;;-0.26;100.00;102979.72;5093231;28;20473;-72
2024/01/28 00:29:05;;;;;;;16.63;9.20;;;;;;;-0.31;100.00;102977.31;5111342;28;20020;-71
2024/01/28 00:31:30;;;;;;;22.50;10.15;;;;;;;-0.31;100.00;102985.22;5111403;28;20039;-72
2024/01/28 00:33:56;;;;;;;18.25;10.52;;;;;;;-0.30;100.00;102986.06;5093134;28;20073;-71
2024/01/28 00:36:21;;;;;;;16.17;9.50;;;;;;;-0.35;100.00;102983.72;5093169;28;20102;-71
2024/01/28 00:38:46;;;;;;;18.77;9.93;;;;;;;-0.34;100.00;102985.41;5111137;28;20055;-71
2024/01/28 00:41:29;;;;;;;21.80;9.52;;;;;;;-0.35;100.00;102988.97;5093142;28;20020;-71
2024/01/28 00:43:55;;;;;;;20.10;10.00;;;;;;;-0.34;100.00;102980.13;5111291;28;20039;-71
2024/01/28 00:46:22;;;;;;;15.75;10.15;;;;;;;-0.35;100.00;102981.06;5111295;28;20028;-71
2024/01/28 00:48:48;;;;;;;19.05;10.57;;;;;;;-0.40;100.00;102974.41;5094657;28;20149;-70
2024/01/28 00:51:13;;;;;;;15.02;10.73;;;;;;;-0.40;100.00;102961.25;5114845;28;20059;-70
2024/01/28 00:53:39;;;;;;;21.77;10.48;;;;;;;-0.43;100.00;102950.94;5114712;28;20027;-72
2024/01/28 00:56:04;;;;;;;19.25;11.07;;;;;;;-0.47;100.00;102958.16;5114668;28;20027;-72
2024/01/28 00:58:30;;;;;;;17.63;10.02;;;;;;;-0.53;100.00;102950.66;5096425;28;20039;-71
2024/01/28 01:00:55;;;;;;;20.85;10.18;;;;;;;-0.52;100.00;102952.34;5096349;28;20022;-71
2024/01/28 01:03:21;;;;;;;17.88;9.70;;;;;;;-0.51;100.00;102954.03;5114605;28;20066;-71
2024/01/28 01:05:46;;;;;;;16.48;9.82;;;;;;;-0.52;100.00;102949.72;5114783;28;20023;-71
2024/01/28 01:08:12;;;;;;;22.00;9.93;;;;;;;-0.56;100.00;102940.31;5096686;28;20042;-71
2024/01/28 01:10:37;;;;;;;15.63;9.48;;;;;;;-0.55;100.00;102943.78;5114985;28;20030;-71
2024/01/28 01:13:03;;;;;;;22.77;9.63;;;;;;;-0.56;100.00;102949.97;5096546;28;20035;-70
2024/01/28 01:15:31;;;;;;;18.40;9.80;;;;;;;-0.57;100.00;102940.41;5114950;28;20070;-71
2024/01/28 01:17:56;;;;;;;22.40;10.13;;;;;;;-0.57;100.00;102935.16;5114699;28;20053;-70
2024/01/28 01:20:22;;;;;;;18.58;10.82;;;;;;;-0.59;100.00;102934.38;5114579;28;20019;-72
2024/01/28 01:22:48;;;;;;;20.98;10.52;;;;;;;-0.62;100.00;102925.72;5114766;28;20031;-71
2024/01/28 01:25:13;;;;;;;16.25;9.98;;;;;;;-0.63;100.00;102925.81;5114979;28;20031;-71
2024/01/28 01:27:40;;;;;;;14.85;9.85;;;;;;;-0.60;100.00;102927.44;5114699;28;20106;-71
2024/01/28 01:30:07;;;;;;;23.17;9.65;;;;;;;-0.63;100.00;102931.94;5114529;28;20116;-72
2024/01/28 01:32:32;;;;;;;19.58;9.88;;;;;;;-0.64;100.00;102924.13;5114822;28;20111;-72
2024/01/28 01:34:58;;;;;;;17.45;9.43;;;;;;;-0.63;100.00;102924.03;5114526;28;20027;-72
2024/01/28 01:37:23;;;;;;;17.08;9.82;;;;;;;-0.66;100.00;102921.59;5096452;28;20452;-72
2024/01/28 01:39:49;;;;;;;15.10;10.32;;;;;;;-0.69;100.00;102928.81;5114428;28;20515;-72
2024/01/28 01:42:14;;;;;;;14.57;9.48;;;;;;;-0.74;100.00;102923.00;5114349;28;20503;-72
2024/01/28 01:44:39;;;;;;;19.20;10.68;;;;;;;-0.78;100.00;102924.09;5096162;28;20074;-72
2024/01/28 01:47:05;;;;;;;21.58;10.10;;;;;;;-0.83;100.00;102931.41;5114403;28;20028;-72
2024/01/28 01:49:32;;;;;;;18.15;9.65;;;;;;;-0.88;100.00;102936.06;5114428;28;20032;-70
2024/01/28 01:51:58;;;;;;;18.92;11.32;;;;;;;-0.93;100.00;102937.16;5114225;28;20153;-71
2024/01/28 01:54:23;;;;;;;21.15;10.80;;;;;;;-0.91;100.00;102937.06;5114169;28;20126;-71
2024/01/28 01:56:49;;;;;;;19.75;12.23;;;;;;;-0.95;100.00;102935.56;5096037;28;20023;-71
2024/01/28 01:59:15;;;;;;;20.23;10.38;;;;;;;-0.98;100.00;102933.13;5114075;28;20472;-73
2024/01/28 02:01:42;;;;;;;20.65;11.30;;;;;;;-1.02;100.00;102936.84;5113728;28;20125;-73
2024/01/28 02:04:07;;;;;;;19.83;11.20;;;;;;;-1.09;100.00;102939.00;5114211;28;20028;-71
2024/01/28 02:06:32;;;;;;;16.95;9.98;;;;;;;-1.16;100.00;102940.25;5095715;28;20019;-71
2024/01/28 02:08:58;;;;;;;16.52;9.95;;;;;;;-1.28;100.00;102926.03;5113856;28;20023;-71
2024/01/28 02:11:23;;;;;;;18.80;9.80;;;;;;;-1.30;100.00;102927.91;5113973;28;20027;-71
2024/01/28 02:13:49;;;;;;;16.90;10.13;;;;;;;-1.30;100.00;102937.56;5113941;28;20027;-72
2024/01/28 02:16:14;;;;;;;27.15;10.98;;;;;;;-1.32;100.00;102936.78;5078780;28;20093;-70
2024/01/28 02:18:39;;;;;;;15.77;10.00;;;;;;;-1.38;100.00;102930.13;5113795;28;20035;-71
2024/01/28 02:21:05;;;;;;;18.70;11.60;;;;;;;-1.51;100.00;102918.59;5095587;28;20031;-71
2024/01/28 02:23:30;;;;;;;18.25;11.50;;;;;;;-1.54;100.00;102912.66;5113832;28;20027;-71
2024/01/28 02:25:55;;;;;;;22.35;11.80;;;;;;;-1.51;100.00;102909.88;5095506;28;20114;-70
2024/01/28 02:28:21;;;;;;;20.02;10.63;;;;;;;-1.52;100.00;102897.69;5113742;28;20023;-70
2024/01/28 02:30:47;;;;;;;20.98;10.77;;;;;;;-1.51;100.00;102900.22;5113856;28;20068;-70
2024/01/28 02:33:12;;;;;;;22.30;10.38;;;;;;;-1.52;100.00;102889.81;5095406;28;20031;-70
2024/01/28 02:35:37;;;;;;;16.80;10.65;;;;;;;-1.53;100.00;102893.38;5113450;28;20114;-70
2024/01/28 02:38:03;;;;;;;18.58;11.50;;;;;;;-1.54;100.00;102881.19;5113469;28;20024;-70
2024/01/28 02:40:30;;;;;;;19.08;10.40;;;;;;;-1.53;100.00;102880.25;5113535;28;20032;-70
2024/01/28 02:42:56;;;;;;;16.73;10.15;;;;;;;-1.40;100.00;102881.28;5113529;28;20411;-69
2024/01/28 02:45:21;;;;;;;17.67;9.95;;;;;;;-1.36;100.00;102878.41;5113457;28;20032;-70
2024/01/28 02:47:47;;;;;;;21.80;10.65;;;;;;;-1.29;100.00;102887.59;5095115;28;20027;-70
2024/01/28 02:50:12;;;;;;;17.30;9.43;;;;;;;-1.28;100.00;102883.22;5113477;28;20028;-71
2024/01/28 02:52:37;;;;;;;16.10;9.32;;;;;;;-1.31;100.00;102872.88;5113228;28;20035;-70
2024/01/28 02:55:03;;;;;;;19.35;10.68;;;;;;;-1.29;100.00;102871.88;5094741;28;20030;-70
2024/01/28 02:57:28;;;;;;;21.95;10.25;;;;;;;-1.30;100.00;102879.81;5113241;28;20403;-70
2024/01/28 02:59:54;;;;;;;19.55;9.98;;;;;;;-1.33;100.00;102875.59;5113325;28;20364;-70
2024/01/28 03:02:20;;;;;;;16.25;9.95;;;;;;;-1.31;100.00;102873.72;5113247;28;20030;-71
2024/01/28 03:04:45;;;;;;;17.50;9.45;;;;;;;-1.30;100.00;102874.59;5113048;28;20032;-73
2024/01/28 03:07:11;;;;;;;14.82;9.07;;;;;;;-1.32;100.00;102873.81;5113077;28;20107;-71
2024/01/28 03:09:36;;;;;;;25.40;10.30;;;;;;;-1.37;100.00;102876.72;5112996;28;20051;-70
2024/01/28 03:12:01;;;;;;;14.48;9.50;;;;;;;-1.43;100.00;102870.97;5093689;28;20031;-70
2024/01/28 03:14:27;;;;;;;16.92;10.13;;;;;;;-1.46;100.00;102868.50;5112977;28;20100;-71
2024/01/28 03:16:53;;;;;;;20.02;10.95;;;;;;;-1.50;100.00;102859.94;5094781;28;20085;-71
2024/01/28 03:19:18;;;;;;;15.60;9.95;;;;;;;-1.52;100.00;102863.59;5112981;28;20055;-70
2024/01/28 03:21:43;;;;;;;20.20;9.65;;;;;;;-1.58;100.00;102851.66;5112995;28;20039;-70
2024/01/28 03:24:09;;;;;;;14.98;9.65;;;;;;;-1.58;100.00;102854.28;5112789;28;20118;-70
2024/01/28 03:26:35;;;;;;;14.40;8.60;;;;;;;-1.62;100.00;102850.16;5112778;28;20097;-70
2024/01/28 03:29:01;;;;;;;17.60;8.77;;;;;;;-1.66;100.00;102846.84;5112865;28;20088;-71
2024/01/28 03:31:27;;;;;;;15.98;8.98;;;;;;;-1.64;100.00;102845.00;5094573;28;20110;-71
2024/01/28 03:33:52;;;;;;;17.48;9.02;;;;;;;-1.63;100.00;102851.94;5094440;28;20110;-70
2024/01/28 03:36:18;;;;;;;17.88;9.63;;;;;;;-1.65;100.00;102850.31;5112596;28;20035;-70
2024/01/28 03:38:43;;;;;;;23.80;9.30;;;;;;;-1.67;100.00;102855.66;5112690;28;20028;-71
2024/01/28 03:41:08;;;;;;;18.00;9.63;;;;;;;-1.69;100.00;102851.44;5112752;28;20047;-71
2024/01/28 03:43:34;;;;;;;15.05;9.70;;;;;;;-1.71;100.00;102843.66;5094353;28;20518;-72
2024/01/28 03:45:59;;;;;;;18.60;9.60;;;;;;;-1.69;100.00;102847.03;5112569;28;20062;-70
2024/01/28 03:48:24;;;;;;;16.45;9.35;;;;;;;-1.69;100.00;102848.81;5112494;28;20459;-71
2024/01/28 03:50:50;;;;;;;15.55;9.25;;;;;;;-1.71;100.00;102840.19;5112437;28;20059;-71
2024/01/28 03:53:15;;;;;;;20.08;10.57;;;;;;;-1.75;100.00;102841.25;5112557;28;20116;-71
2024/01/28 03:55:43;;;;;;;15.95;9.00;;;;;;;-1.75;100.00;102841.25;5094125;28;20031;-71
2024/01/28 03:58:09;;;;;;;14.82;9.40;;;;;;;-1.75;100.00;102836.84;5112380;28;20023;-70
2024/01/28 04:00:35;;;;;;;14.57;9.30;;;;;;;-1.78;100.00;102834.41;5112340;28;20471;-70
2024/01/28 04:03:01;;;;;;;15.55;8.48;;;;;;;-1.80;100.00;102833.66;5112243;28;20035;-70
2024/01/28 04:05:26;;;;;;;15.10;8.93;;;;;;;-1.80;100.00;102844.13;5112272;28;20106;-70
2024/01/28 04:07:52;;;;;;;19.48;9.32;;;;;;;-1.83;100.00;102832.97;5112313;28;20119;-71
2024/01/28 04:10:17;;;;;;;23.17;9.15;;;;;;;-1.81;100.00;102837.22;5112169;28;20106;-71
2024/01/28 04:12:43;;;;;;;13.55;8.30;;;;;;;-1.85;100.00;102835.69;5112071;28;20045;-70
2024/01/28 04:15:08;;;;;;;13.75;7.93;;;;;;;-1.88;100.00;102838.47;5093824;28;20093;-70
2024/01/28 04:17:34;;;;;;;15.90;7.60;;;;;;;-1.83;100.00;102840.84;5112087;28;20026;-70
2024/01/28 04:19:59;;;;;;;17.95;9.20;;;;;;;-1.86;100.00;102834.00;5112046;28;20035;-72
2024/01/28 04:22:26;;;;;;;17.70;8.75;;;;;;;-1.87;100.00;102833.16;5112217;28;20035;-72
2024/01/28 04:24:51;;;;;;;14.85;8.65;;;;;;;-1.85;100.00;102824.34;5115418;28;20081;-71
2024/01/28 04:27:16;;;;;;;19.30;9.82;;;;;;;-1.90;100.00;102822.84;5115553;28;20091;-71
2024/01/28 04:29:42;;;;;;;17.00;8.48;;;;;;;-1.93;100.00;102823.00;5097297;28;20054;-70
2024/01/28 04:32:10;;;;;;;12.48;8.55;;;;;;;-1.92;100.00;102816.00;5097231;28;20081;-70
2024/01/28 04:34:35;;;;;;;17.02;8.15;;;;;;;-1.91;100.00;102812.44;5097191;28;20130;-71
2024/01/28 04:37:01;;;;;;;16.33;8.57;;;;;;;-1.93;100.00;102809.91;5115591;28;20611;-70
2024/01/28 04:39:26;;;;;;;19.88;8.93;;;;;;;-1.93;100.00;102809.91;5115435;28;20067;-71
2024/01/28 04:41:52;;;;;;;19.77;9.18;;;;;;;-1.92;100.00;102810.75;5097320;28;20037;-69
2024/01/28 04:44:19;;;;;;;15.70;8.32;;;;;;;-1.94;100.00;102800.34;5115363;28;20031;-71
2024/01/28 04:46:45;;;;;;;15.25;8.63;;;;;;;-1.94;100.00;102799.50;5115390;28;20032;-70
2024/01/28 04:49:11;;;;;;;15.30;8.52;;;;;;;-1.94;100.00;102794.25;5115399;28;20474;-70
2024/01/28 04:51:36;;;;;;;24.83;10.05;;;;;;;-1.99;100.00;102791.91;5115322;28;20027;-71
2024/01/28 04:54:02;;;;;;;17.10;9.43;;;;;;;-1.96;100.00;102796.13;5115147;28;20039;-70
2024/01/28 04:56:27;;;;;;;12.30;7.75;;;;;;;-1.97;100.00;102789.19;5115111;28;20027;-70
2024/01/28 04:58:52;;;;;;;12.40;8.38;;;;;;;-1.93;100.00;102785.47;5115153;28;20377;-71
2024/01/28 05:01:18;;;;;;;16.42;8.77;;;;;;;-1.96;100.00;102775.16;5097087;28;20122;-72
2024/01/28 05:03:43;;;;;;;14.30;8.05;;;;;;;-1.91;100.00;102789.69;5096808;28;20114;-72
2024/01/28 05:06:09;;;;;;;16.45;8.20;;;;;;;-1.88;100.00;102788.66;5115094;28;20489;-71
2024/01/28 05:08:35;;;;;;;15.70;8.50;;;;;;;-1.93;100.00;102786.31;5096656;28;20043;-71
2024/01/28 05:11:01;;;;;;;13.98;8.20;;;;;;;-1.95;100.00;102788.19;5115020;28;20027;-70
2024/01/28 05:13:26;;;;;;;18.55;8.60;;;;;;;-1.98;100.00;102787.50;5114733;28;20047;-70
2024/01/28 05:15:51;;;;;;;17.08;9.27;;;;;;;-1.97;100.00;102789.19;5114982;28;20156;-71
2024/01/28 05:18:17;;;;;;;15.35;8.93;;;;;;;-1.95;100.00;102797.81;5096643;28;20028;-71
2024/01/28 05:20:43;;;;;;;19.15;8.65;;;;;;;-1.95;100.00;102797.81;5114856;28;20024;-70
2024/01/28 05:23:09;;;;;;;16.92;8.27;;;;;;;-1.98;100.00;102788.34;5114710;28;20036;-70
2024/01/28 05:25:35;;;;;;;15.82;8.68;;;;;;;-2.00;100.00;102786.75;5096514;28;20027;-71
2024/01/28 05:28:00;;;;;;;16.88;7.68;;;;;;;-1.98;100.00;102792.75;5096402;28;20482;-71
2024/01/28 05:30:25;;;;;;;18.30;7.82;;;;;;;-2.02;100.00;102773.72;5096386;28;20027;-71
2024/01/28 05:32:51;;;;;;;13.48;7.13;;;;;;;-2.03;100.00;102779.03;5114641;28;20058;-71
2024/01/28 05:35:16;;;;;;;20.88;10.02;;;;;;;-2.05;100.00;102773.88;5095386;28;20066;-70
2024/01/28 05:37:41;;;;;;;19.92;7.53;;;;;;;-2.07;100.00;102761.78;5114558;28;20073;-71
2024/01/28 05:40:08;;;;;;;14.45;8.93;;;;;;;-2.09;100.00;102766.25;5114501;28;20072;-72
2024/01/28 05:42:34;;;;;;;12.55;7.95;;;;;;;-2.14;100.00;102756.03;5114490;28;20046;-72
2024/01/28 05:44:59;;;;;;;18.73;9.32;;;;;;;-2.15;100.00;102759.59;5114568;28;20039;-70
2024/01/28 05:47:24;;;;;;;15.63;9.40;;;;;;;-2.19;100.00;102758.91;5114427;28;20035;-70
2024/01/28 05:49:50;;;;;;;15.55;8.35;;;;;;;-2.22;100.00;102753.84;5114433;28;20065;-71
2024/01/28 05:52:15;;;;;;;13.80;8.35;;;;;;;-2.26;100.00;102739.22;5114429;28;20419;-71
2024/01/28 05:54:43;;;;;;;16.33;8.75;;;;;;;-2.26;100.00;102746.25;5096112;28;20047;-72
2024/01/28 05:57:10;;;;;;;19.65;7.88;;;;;;;-2.25;100.00;102742.69;5114472;28;20028;-70
2024/01/28 05:59:36;;;;;;;14.75;7.18;;;;;;;-2.24;100.00;102742.59;5114483;28;20077;-70
2024/01/28 06:02:01;;;;;;;15.95;7.82;;;;;;;-2.24;100.00;102734.75;5114299;28;20036;-70
2024/01/28 06:04:27;;;;;;;11.93;7.55;;;;;;;-2.26;100.00;102731.38;5114157;28;20097;-70
2024/01/28 06:06:52;;;;;;;15.07;6.85;;;;;;;-2.27;100.00;102718.34;5114113;28;20061;-70
2024/01/28 06:09:19;;;;;;;14.98;8.05;;;;;;;-2.23;100.00;102718.09;5114032;28;20131;-70
2024/01/28 06:11:45;;;;;;;14.63;8.82;;;;;;;-2.28;100.00;102701.78;5114075;28;20040;-70
2024/01/28 06:14:11;;;;;;;19.00;7.97;;;;;;;-2.23;100.00;102715.47;5113809;28;20028;-70
2024/01/28 06:16:36;;;;;;;15.98;7.55;;;;;;;-2.23;100.00;102710.25;5114000;28;20031;-71
2024/01/28 06:19:02;;;;;;;16.52;7.78;;;;;;;-2.19;100.00;102711.75;5113775;28;20074;-71
2024/01/28 06:21:27;;;;;;;13.02;8.15;;;;;;;-2.24;100.00;102713.78;5113900;28;20031;-71
2024/01/28 06:23:53;;;;;;;16.27;7.18;;;;;;;-2.28;100.00;102704.41;5113986;28;20083;-71
2024/01/28 06:26:18;;;;;;;16.90;8.23;;;;;;;-2.26;100.00;102712.19;5095767;28;20122;-70
2024/01/28 06:28:47;;;;;;;15.05;7.93;;;;;;;-2.24;100.00;102716.41;5095378;28;20027;-71
2024/01/28 06:31:13;;;;;;;18.48;7.22;;;;;;;-2.23;100.00;102715.47;5095375;28;20340;-71
2024/01/28 06:33:40;;;;;;;19.80;8.45;;;;;;;-2.25;100.00;102717.34;5113705;28;20028;-71
2024/01/28 06:36:05;;;;;;;11.48;7.80;;;;;;;-2.35;100.00;102697.78;5113453;28;20475;-71
2024/01/28 06:38:31;;;;;;;15.88;7.72;;;;;;;-2.29;100.00;102705.34;5113340;28;20059;-71
2024/01/28 06:40:57;;;;;;;12.18;7.50;;;;;;;-2.32;100.00;102705.47;5113422;28;20032;-71
2024/01/28 06:43:25;;;;;;;16.65;8.15;;;;;;;-2.29;100.00;102699.25;5113361;28;20043;-71
2024/01/28 06:45:53;;;;;;;17.05;9.30;;;;;;;-2.30;100.00;102698.41;5094676;28;20066;-72
2024/01/28 06:48:19;;;;;;;15.73;8.18;;;;;;;-2.30;100.00;102692.34;5112709;28;20188;-73
2024/01/28 06:50:45;;;;;;;11.95;7.18;;;;;;;-2.35;100.00;102696.94;5094501;28;20118;-73
2024/01/28 06:53:10;;;;;;;15.85;7.47;;;;;;;-2.36;100.00;102693.50;5094694;28;20121;-74
2024/01/28 06:55:36;;;;;;;13.93;6.97;;;;;;;-2.36;100.00;102696.09;5112832;28;20039;-74
2024/01/28 06:58:01;;;;;;;13.48;7.68;;;;;;;-2.30;100.00;102689.72;5094610;28;20462;-72
2024/01/28 07:00:27;;;;;;;14.48;7.15;;;;;;;-2.32;100.00;102699.41;5112766;28;20027;-73
2024/01/28 07:02:53;;;;;;;14.40;7.50;;;;;;;-2.31;100.00;102696.72;5094409;28;20023;-72
2024/01/28 07:05:20;;;;;;;13.13;7.07;;;;;;;-2.26;100.00;102696.47;5094373;28;20118;-73
2024/01/28 07:07:45;;;;;;;14.18;7.22;;;;;;;-2.29;100.00;102686.16;5094341;28;20488;-74
2024/01/28 07:10:10;;;;;;;15.82;8.02;;;;;;;-2.26;100.00;102686.84;5112774;28;20150;-72
2024/01/28 07:12:36;;;;;;;17.02;10.35;;;;;;;-2.24;100.00;102690.22;5112607;28;20064;-72
2024/01/28 07:15:02;;;;;;;19.73;9.68;;;;;;;-2.29;100.00;102694.88;5113214;28;20036;-72
2024/01/28 07:17:27;;;;;;;19.10;9.38;;;;;;;-2.31;100.00;102695.88;5112663;28;20031;-71
2024/01/28 07:19:52;;;;;;;12.80;7.88;;;;;;;-2.29;100.00;102702.72;5094342;28;20100;-72
2024/01/28 07:22:18;;;;;;;14.57;7.80;;;;;;;-2.24;100.00;102695.44;5112667;28;20027;-72
2024/01/28 07:24:43;;;;;;;13.05;7.72;;;;;;;-2.21;100.00;102695.28;5112507;28;20114;-71
2024/01/28 07:27:09;;;;;;;15.73;8.88;;;;;;;-2.14;100.00;102698.41;5112455;28;20038;-72
2024/01/28 07:29:34;;;;;;;19.55;8.55;;;;;;;-2.14;100.00;102693.16;5112286;28;20059;-73
2024/01/28 07:32:00;;;;;;;12.10;7.75;;;;;;;-2.13;100.00;102691.38;5094373;28;20058;-73
2024/01/28 07:34:25;;;;;;;18.10;9.85;;;;;;;-2.11;100.00;102677.25;5112305;28;20080;-72
2024/01/28 07:36:51;;;;;;;18.85;9.52;;;;;;;-1.98;100.00;102683.50;5112458;28;20072;-72
2024/01/28 07:39:16;;;;;;;14.43;9.70;;;;;;;-1.75;100.00;102676.06;5094040;28;20034;-71
2024/01/28 07:41:42;;;;;;;31.63;16.83;;;;;;;-1.57;100.00;102675.03;5112237;28;20491;-73
2024/01/28 07:44:08;;;;;;;22.48;14.02;;;;;;;-1.34;100.00;102674.50;5112322;28;20035;-73
2024/01/28 07:46:33;;;;;;;15.82;8.65;;;;;;;-1.15;100.00;102663.75;5112445;28;20092;-72
2024/01/28 07:48:59;;;;;;;14.80;9.63;;;;;;;-0.70;100.00;102673.22;5112821;28;20495;-73
2024/01/28 07:51:25;;;;;;;10.57;7.93;;;;;;;-0.18;100.00;102672.53;5112205;28;20027;-73
2024/01/28 07:53:50;;;;;;;14.10;7.93;;;;;;;0.21;100.00;102681.38;5112198;28;20083;-73
2024/01/28 07:56:16;;;;;;;11.05;7.10;;;;;;;0.69;100.00;102666.75;5112304;28;20096;-73
2024/01/28 07:58:41;;;;;;;12.98;6.90;;;;;;;1.42;100.00;102677.41;5111313;28;20105;-72
2024/01/28 08:01:07;;;;;;;10.73;6.95;;;;;;;1.86;100.00;102681.28;5112394;28;20020;-70
2024/01/28 08:03:32;;;;;;;11.88;7.18;;;;;;;2.03;100.00;102683.53;5112253;28;20387;-70
2024/01/28 08:05:58;;;;;;;11.40;7.25;;;;;;;2.60;100.00;102679.28;5112296;28;20384;-71
2024/01/28 08:08:23;;;;;;;10.18;6.35;;;;;;;3.12;100.00;102686.69;5093968;28;20024;-71
2024/01/28 08:10:49;;;;;;;11.80;6.85;;;;;;;3.69;100.00;102681.22;5112071;28;20468;-70
2024/01/28 08:13:15;;;;;;;14.23;6.07;;;;;;;3.71;100.00;102686.38;5093654;28;20024;-71
2024/01/28 08:15:40;;;;;;;11.15;6.20;;;;;;;3.61;100.00;102673.06;5112040;28;20426;-72
2024/01/28 08:18:06;;;;;;;8.98;6.45;;;;;;;3.83;100.00;102677.47;5111981;28;20472;-72
2024/01/28 08:20:31;;;;;;;9.20;6.63;;;;;;;4.42;100.00;102673.50;5111970;28;20479;-70
2024/01/28 08:22:57;;;;;;;9.63;6.25;;;;;;;4.78;100.00;102683.63;5111810;28;20027;-73
2024/01/28 08:25:23;;;;;;;10.13;6.25;;;;;;;4.90;100.00;102676.44;5093552;28;20114;-72
2024/01/28 08:27:48;;;;;;;9.13;5.93;;;;;;;4.80;100.00;102671.09;5111949;28;20027;-72
2024/01/28 08:30:15;;;;;;;11.95;6.68;;;;;;;5.19;100.00;102660.66;5093536;28;20034;-73
2024/01/28 08:32:40;;;;;;;9.57;5.82;;;;;;;6.02;100.00;102673.59;5111759;28;20046;-72
2024/01/28 08:35:07;;;;;;;8.52;5.15;;;;;;;6.58;100.00;102672.88;5093513;28;20468;-73
2024/01/28 08:37:32;;;;;;;9.52;5.95;;;;;;;6.63;100.00;102667.97;5111797;28;20052;-73
2024/01/28 08:39:58;;;;;;;9.82;5.25;;;;;;;7.14;100.00;102656.88;5111834;28;20102;-73
2024/01/28 08:42:24;;;;;;;8.93;5.97;;;;;;;7.69;100.00;102661.38;5111778;28;20115;-74
2024/01/28 08:44:49;;;;;;;12.07;6.13;;;;;;;7.64;100.00;102669.81;5111570;28;20483;-74
2024/01/28 08:47:15;;;;;;;11.00;6.00;;;;;;;7.18;100.00;102662.75;5093214;28;20024;-75
2024/01/28 08:49:40;;;;;;;8.95;6.07;;;;;;;6.41;100.00;102661.16;5111713;28;20023;-74
2024/01/28 08:52:05;;;;;;;9.32;5.60;;;;;;;5.93;100.00;102657.66;5111534;28;20038;-73
2024/01/28 08:54:32;;;;;;;8.15;5.85;;;;;;;5.60;100.00;102660.53;5111066;28;20113;-74
2024/01/28 08:56:58;;;;;;;9.60;6.35;;;;;;;5.45;100.00;102648.59;5111094;28;20031;-73
2024/01/28 08:59:24;;;;;;;10.52;5.95;;;;;;;5.32;100.00;102657.78;5111055;28;20034;-74
2024/01/28 09:01:51;;;;;;;9.88;6.32;;;;;;;5.25;100.00;102653.03;5092814;28;20391;-73
2024/01/28 09:04:17;;;;;;;12.48;6.53;;;;;;;5.73;100.00;102654.94;5111077;28;20031;-73
2024/01/28 09:06:42;;;;;;;10.05;6.25;;;;;;;5.95;100.00;102659.22;5111079;28;20037;-73
2024/01/28 09:09:08;;;;;;;12.02;6.43;;;;;;;6.02;100.00;102662.13;5111103;28;20383;-73
2024/01/28 09:11:37;;;;;;;9.55;5.38;;;;;;;6.02;100.00;102651.50;5113789;28;20448;-73
2024/01/28 09:14:04;;;;;;;10.75;5.88;;;;;;;5.84;100.00;102649.53;5114478;28;20027;-75
2024/01/28 09:16:30;;;;;;;12.70;6.47;;;;;;;5.64;100.00;102645.16;5114321;28;20036;-74
2024/01/28 09:18:55;;;;;;;12.98;7.35;;;;;;;5.36;100.00;102649.44;5114353;28;20529;-75
2024/01/28 09:21:20;;;;;;;12.52;6.03;;;;;;;5.16;100.00;102642.38;5096133;28;20028;-74
2024/01/28 09:23:46;;;;;;;12.52;6.60;;;;;;;4.90;100.00;102634.03;5095978;28;20515;-75
2024/01/28 09:26:11;;;;;;;14.30;7.65;;;;;;;4.56;100.00;102642.22;5114155;28;20039;-75
2024/01/28 09:28:37;;;;;;;14.93;7.40;;;;;;;4.27;100.00;102627.94;5114086;28;20035;-75
2024/01/28 09:31:06;;;;;;;10.07;6.28;;;;;;;4.11;100.00;102628.41;5095692;28;20031;-75
2024/01/28 09:33:31;;;;;;;11.02;6.30;;;;;;;3.99;100.00;102640.00;5095772;28;20665;-74
2024/01/28 09:35:57;;;;;;;9.20;5.88;;;;;;;3.91;100.00;102627.41;5114049;28;20035;-75
2024/01/28 09:38:22;;;;;;;10.75;5.72;;;;;;;4.82;100.00;102625.91;5113998;28;20032;-75
2024/01/28 09:40:48;;;;;;;11.68;6.40;;;;;;;6.77;100.00;102629.47;5114092;28;20440;-75
2024/01/28 09:43:29;;;;;;;14.43;5.45;;;;;;;8.38;100.00;102626.91;5114110;28;20031;-75
2024/01/28 09:45:55;;;;;;;6.95;5.22;;;;;;;8.77;96.55;102634.50;5095589;28;20023;-75
2024/01/28 09:48:21;;;;;;;11.48;6.35;;;;;;;8.78;96.16;102638.81;5095537;28;20063;-75
2024/01/28 09:50:46;;;;;;;10.13;6.82;;;;;;;8.58;95.19;102632.84;5095460;28;20471;-75
2024/01/28 09:53:15;;;;;;;11.65;6.03;;;;;;;8.90;93.93;102639.38;5113617;28;20076;-74
2024/01/28 09:55:41;;;;;;;9.52;5.15;;;;;;;9.15;89.72;102632.34;5114133;28;20118;-75
2024/01/28 09:58:08;;;;;;;7.60;5.40;;;;;;;9.48;89.51;102647.47;5095473;28;20164;-74
2024/01/28 10:00:33;;;;;;;10.63;5.78;;;;;;;9.22;89.58;102628.84;5095337;28;20480;-74
2024/01/28 10:02:59;;;;;;;10.25;5.45;;;;;;;8.82;90.91;102626.84;5113825;28;20056;-74
2024/01/28 10:05:24;;;;;;;9.57;5.28;;;;;;;8.49;92.08;102616.97;5095163;28;20032;-74
2024/01/28 10:07:59;;;;;;;7.70;5.30;;;;;;;8.43;93.17;102612.28;5095320;28;20059;-75
2024/01/28 10:10:24;;;;;;;6.97;5.05;;;;;;;7.98;93.51;102610.53;5113561;28;20124;-74
2024/01/28 10:12:50;;;;;;;10.50;5.25;;;;;;;7.31;98.97;102611.88;5113959;28;20067;-74
2024/01/28 10:15:18;;;;;;;11.27;5.90;;;;;;;7.03;100.00;102611.03;5095559;28;20027;-74
2024/01/28 10:17:48;;;;;;;9.13;5.53;;;;;;;7.28;100.00;102609.50;5095381;28;20370;-74
2024/01/28 10:20:21;;;;;;;8.32;5.70;;;;;;;7.90;100.00;102607.81;5095135;28;20028;-72
2024/01/28 10:22:47;;;;;;;11.15;5.63;;;;;;;7.91;98.06;102607.66;5094927;28;20402;-74
2024/01/28 10:25:18;;;;;;;12.68;5.20;;;;;;;7.22;100.00;102602.94;5095332;28;20032;-75
2024/01/28 10:27:47;;;;;;;9.25;5.50;;;;;;;7.91;100.00;102610.34;5113620;28;20073;-75
2024/01/28 10:30:15;;;;;;;9.10;5.50;;;;;;;8.78;97.24;102606.81;5113683;28;20028;-75
2024/01/28 10:32:42;;;;;;;7.93;5.20;;;;;;;9.16;92.41;102615.31;5095121;28;20036;-74
2024/01/28 10:35:08;;;;;;;8.82;5.05;;;;;;;9.91;88.19;102606.34;5095217;28;20073;-74
2024/01/28 10:37:34;;;;;;;9.43;5.55;;;;;;;10.73;82.27;102599.09;5113294;28;20055;-73
2024/01/28 10:40:05;;;;;;;7.68;4.95;;;;;;;10.98;81.03;102609.69;5113442;28;20471;-74
2024/01/28 10:42:37;;;;;;;9.45;5.50;;;;;;;11.73;81.67;102599.25;5113539;28;20027;-74
2024/01/28 10:45:06;;;;;;;9.15;5.30;;;;;;;12.56;75.54;102601.91;5113454;28;20534;-74
2024/01/28 10:47:35;;;;;;;6.28;4.43;;;;;;;12.82;70.61;102608.69;5094860;28;20134;-73
2024/01/28 10:50:05;;;;;;;9.25;4.68;;;;;;;12.03;71.62;102597.56;5112952;28;20024;-72
2024/01/28 10:52:32;;;;;;;7.57;4.32;;;;;;;11.95;71.61;102600.31;5112789;28;20038;-75
2024/01/28 10:54:59;;;;;;;6.25;4.80;;;;;;;12.02;73.16;102596.72;5112626;28;20076;-75
2024/01/28 10:57:27;;;;;;;8.10;4.47;;;;;;;11.97;72.96;102591.06;5112775;28;20031;-75
2024/01/28 10:59:59;;;;;;;8.18;4.38;;;;;;;11.94;70.68;102583.38;5094526;28;20027;-74
2024/01/28 11:02:24;;;;;;;7.27;4.87;;;;;;;10.88;73.26;102576.94;5094731;28;20119;-74
2024/01/28 11:04:50;;;;;;;7.00;4.18;;;;;;;9.86;80.56;102579.28;5094518;28;20482;-73
2024/01/28 11:07:19;;;;;;;6.70;4.40;;;;;;;9.22;83.92;102569.31;5112818;28;20032;-75